sensor_id;sensor_type;location;lat;lon;timestamp;P1;durP1;ratioP1;P2;durP2;ratioP2
24619;SDS011;12763;55.802;37.404;2023-02-01T00:00:11;29.45;;;9.73;;
24619;SDS011;12763;55.802;37.404;2023-02-01T00:02:37;24.85;;;8.85;;
24619;SDS011;12763;55.802;37.404;2023-02-01T00:05:08;24.02;;;9.18;;
24619;SDS011;12763;55.802;37.404;2023-02-01T00:07:35;24.13;;;8.95;;
24619;SDS011;12763;55.802;37.404;2023-02-01T00:10:04;28.30;;;9.68;;
24619;SDS011;12763;55.802;37.404;2023-02-01T00:12:34;22.02;;;9.38;;
24619;SDS011;12763;55.802;37.404;2023-02-01T00:15:00;29.80;;;9.38;;
24619;SDS011;12763;55.802;37.404;2023-02-01T00:17:26;19.05;;;8.30;;
24619;SDS011;12763;55.802;37.404;2023-02-01T00:19:51;27.13;;;10.20;;
24619;SDS011;12763;55.802;37.404;2023-02-01T00:22:17;24.98;;;9.63;;
24619;SDS011;12763;55.802;37.404;2023-02-01T00:24:43;27.30;;;9.68;;
24619;SDS011;12763;55.802;37.404;2023-02-01T00:27:09;27.70;;;10.63;;
24619;SDS011;12763;55.802;37.404;2023-02-01T00:29:35;20.05;;;7.93;;
24619;SDS011;12763;55.802;37.404;2023-02-01T00:32:00;22.33;;;9.82;;
24619;SDS011;12763;55.802;37.404;2023-02-01T00:34:27;23.52;;;9.07;;
24619;SDS011;12763;55.802;37.404;2023-02-01T00:36:52;19.02;;;9.07;;
24619;SDS011;12763;55.802;37.404;2023-02-01T00:39:18;21.55;;;9.30;;
24619;SDS011;12763;55.802;37.404;2023-02-01T00:41:44;23.70;;;8.88;;
24619;SDS011;12763;55.802;37.404;2023-02-01T00:44:13;21.88;;;8.80;;
24619;SDS011;12763;55.802;37.404;2023-02-01T00:46:38;27.23;;;9.82;;
24619;SDS011;12763;55.802;37.404;2023-02-01T00:49:04;27.23;;;8.00;;
24619;SDS011;12763;55.802;37.404;2023-02-01T00:51:32;25.48;;;9.93;;
24619;SDS011;12763;55.802;37.404;2023-02-01T00:53:58;21.98;;;9.40;;
24619;SDS011;12763;55.802;37.404;2023-02-01T00:56:24;24.73;;;9.07;;
24619;SDS011;12763;55.802;37.404;2023-02-01T00:58:50;25.17;;;10.00;;
24619;SDS011;12763;55.802;37.404;2023-02-01T01:01:17;26.80;;;8.98;;
24619;SDS011;12763;55.802;37.404;2023-02-01T01:03:55;22.67;;;9.05;;
24619;SDS011;12763;55.802;37.404;2023-02-01T01:06:24;24.63;;;9.13;;
24619;SDS011;12763;55.802;37.404;2023-02-01T01:08:52;24.70;;;9.82;;
24619;SDS011;12763;55.802;37.404;2023-02-01T01:11:24;20.63;;;8.27;;
24619;SDS011;12763;55.802;37.404;2023-02-01T01:13:52;21.95;;;8.60;;
24619;SDS011;12763;55.802;37.404;2023-02-01T01:16:19;21.90;;;8.35;;
24619;SDS011;12763;55.802;37.404;2023-02-01T01:18:46;19.67;;;8.27;;
24619;SDS011;12763;55.802;37.404;2023-02-01T01:21:13;21.65;;;9.38;;
24619;SDS011;12763;55.802;37.404;2023-02-01T01:23:40;20.55;;;7.93;;
24619;SDS011;12763;55.802;37.404;2023-02-01T01:26:07;22.13;;;8.88;;
24619;SDS011;12763;55.802;37.404;2023-02-01T01:28:37;21.88;;;8.55;;
24619;SDS011;12763;55.802;37.404;2023-02-01T01:31:03;24.73;;;9.48;;
24619;SDS011;12763;55.802;37.404;2023-02-01T01:33:29;23.98;;;9.40;;
24619;SDS011;12763;55.802;37.404;2023-02-01T01:35:55;21.00;;;8.63;;
24619;SDS011;12763;55.802;37.404;2023-02-01T01:38:21;21.50;;;8.70;;
24619;SDS011;12763;55.802;37.404;2023-02-01T01:40:47;23.27;;;9.05;;
24619;SDS011;12763;55.802;37.404;2023-02-01T01:43:16;23.33;;;9.43;;
24619;SDS011;12763;55.802;37.404;2023-02-01T01:45:45;25.35;;;8.00;;
24619;SDS011;12763;55.802;37.404;2023-02-01T01:48:47;22.75;;;8.18;;
24619;SDS011;12763;55.802;37.404;2023-02-01T01:51:07;19.40;;;7.75;;
24619;SDS011;12763;55.802;37.404;2023-02-01T01:53:37;23.33;;;9.65;;
24619;SDS011;12763;55.802;37.404;2023-02-01T01:56:09;19.92;;;8.45;;
24619;SDS011;12763;55.802;37.404;2023-02-01T01:58:35;24.90;;;8.55;;
24619;SDS011;12763;55.802;37.404;2023-02-01T02:01:02;18.95;;;7.45;;
24619;SDS011;12763;55.802;37.404;2023-02-01T02:03:43;19.48;;;8.20;;
24619;SDS011;12763;55.802;37.404;2023-02-01T02:06:39;18.30;;;8.18;;
24619;SDS011;12763;55.802;37.404;2023-02-01T02:09:09;18.13;;;7.72;;
24619;SDS011;12763;55.802;37.404;2023-02-01T02:11:35;18.02;;;7.25;;
24619;SDS011;12763;55.802;37.404;2023-02-01T02:14:00;19.20;;;7.57;;
24619;SDS011;12763;55.802;37.404;2023-02-01T02:38:49;23.00;;;9.07;;
24619;SDS011;12763;55.802;37.404;2023-02-01T02:41:40;19.83;;;8.98;;
24619;SDS011;12763;55.802;37.404;2023-02-01T02:45:30;18.55;;;7.88;;
24619;SDS011;12763;55.802;37.404;2023-02-01T02:47:59;22.02;;;8.43;;
24619;SDS011;12763;55.802;37.404;2023-02-01T02:50:36;20.90;;;8.38;;
24619;SDS011;12763;55.802;37.404;2023-02-01T02:54:08;20.58;;;8.35;;
24619;SDS011;12763;55.802;37.404;2023-02-01T02:56:32;22.45;;;7.63;;
24619;SDS011;12763;55.802;37.404;2023-02-01T02:59:20;19.58;;;8.50;;
24619;SDS011;12763;55.802;37.404;2023-02-01T03:02:07;20.67;;;8.05;;
24619;SDS011;12763;55.802;37.404;2023-02-01T03:04:55;23.02;;;8.10;;
24619;SDS011;12763;55.802;37.404;2023-02-01T03:18:57;20.80;;;9.45;;
24619;SDS011;12763;55.802;37.404;2023-02-01T03:21:26;22.88;;;9.07;;
24619;SDS011;12763;55.802;37.404;2023-02-01T03:24:02;20.00;;;8.88;;
24619;SDS011;12763;55.802;37.404;2023-02-01T03:26:34;20.20;;;9.77;;
24619;SDS011;12763;55.802;37.404;2023-02-01T03:29:17;25.42;;;8.70;;
24619;SDS011;12763;55.802;37.404;2023-02-01T03:31:46;20.77;;;8.30;;
24619;SDS011;12763;55.802;37.404;2023-02-01T03:34:15;19.00;;;7.65;;
24619;SDS011;12763;55.802;37.404;2023-02-01T03:36:45;18.80;;;9.00;;
24619;SDS011;12763;55.802;37.404;2023-02-01T03:39:50;22.17;;;9.40;;
24619;SDS011;12763;55.802;37.404;2023-02-01T03:42:15;20.95;;;8.88;;
24619;SDS011;12763;55.802;37.404;2023-02-01T03:44:57;25.20;;;9.65;;
24619;SDS011;12763;55.802;37.404;2023-02-01T03:47:52;28.70;;;9.95;;
24619;SDS011;12763;55.802;37.404;2023-02-01T03:50:25;26.00;;;9.70;;
24619;SDS011;12763;55.802;37.404;2023-02-01T03:52:56;19.90;;;8.60;;
24619;SDS011;12763;55.802;37.404;2023-02-01T03:55:43;22.55;;;10.25;;
24619;SDS011;12763;55.802;37.404;2023-02-01T03:58:13;23.40;;;10.02;;
24619;SDS011;12763;55.802;37.404;2023-02-01T04:03:17;20.10;;;9.32;;
24619;SDS011;12763;55.802;37.404;2023-02-01T04:05:45;22.52;;;8.48;;
24619;SDS011;12763;55.802;37.404;2023-02-01T04:08:11;25.85;;;9.43;;
24619;SDS011;12763;55.802;37.404;2023-02-01T04:10:37;22.05;;;9.80;;
24619;SDS011;12763;55.802;37.404;2023-02-01T04:13:06;21.52;;;9.80;;
24619;SDS011;12763;55.802;37.404;2023-02-01T04:15:32;27.10;;;9.48;;
24619;SDS011;12763;55.802;37.404;2023-02-01T04:18:00;24.50;;;10.00;;
24619;SDS011;12763;55.802;37.404;2023-02-01T04:20:26;24.10;;;9.80;;
24619;SDS011;12763;55.802;37.404;2023-02-01T04:22:52;26.15;;;9.50;;
24619;SDS011;12763;55.802;37.404;2023-02-01T04:25:18;21.95;;;9.18;;
24619;SDS011;12763;55.802;37.404;2023-02-01T04:27:45;26.15;;;10.27;;
24619;SDS011;12763;55.802;37.404;2023-02-01T04:30:11;25.48;;;9.20;;
24619;SDS011;12763;55.802;37.404;2023-02-01T04:32:38;23.67;;;9.50;;
24619;SDS011;12763;55.802;37.404;2023-02-01T04:35:04;23.60;;;10.40;;
24619;SDS011;12763;55.802;37.404;2023-02-01T04:37:30;27.67;;;9.60;;
24619;SDS011;12763;55.802;37.404;2023-02-01T04:39:56;26.02;;;10.13;;
24619;SDS011;12763;55.802;37.404;2023-02-01T04:42:24;22.52;;;10.20;;
24619;SDS011;12763;55.802;37.404;2023-02-01T04:44:50;25.83;;;10.23;;
24619;SDS011;12763;55.802;37.404;2023-02-01T04:47:18;26.98;;;9.55;;
24619;SDS011;12763;55.802;37.404;2023-02-01T04:49:44;23.75;;;9.80;;
24619;SDS011;12763;55.802;37.404;2023-02-01T04:52:10;25.40;;;10.10;;
24619;SDS011;12763;55.802;37.404;2023-02-01T04:54:36;24.10;;;10.05;;
24619;SDS011;12763;55.802;37.404;2023-02-01T04:57:01;27.13;;;9.30;;
24619;SDS011;12763;55.802;37.404;2023-02-01T04:59:27;24.77;;;9.77;;
24619;SDS011;12763;55.802;37.404;2023-02-01T05:01:54;25.55;;;10.90;;
24619;SDS011;12763;55.802;37.404;2023-02-01T05:04:19;22.38;;;9.82;;
24619;SDS011;12763;55.802;37.404;2023-02-01T05:06:45;23.63;;;9.70;;
24619;SDS011;12763;55.802;37.404;2023-02-01T05:09:11;26.55;;;10.30;;
24619;SDS011;12763;55.802;37.404;2023-02-01T05:11:37;26.67;;;9.93;;
24619;SDS011;12763;55.802;37.404;2023-02-01T05:14:21;33.25;;;10.45;;
24619;SDS011;12763;55.802;37.404;2023-02-01T05:16:47;24.85;;;11.57;;
24619;SDS011;12763;55.802;37.404;2023-02-01T05:19:13;27.38;;;11.43;;
24619;SDS011;12763;55.802;37.404;2023-02-01T05:21:38;24.83;;;10.70;;
24619;SDS011;12763;55.802;37.404;2023-02-01T05:24:07;28.65;;;11.07;;
24619;SDS011;12763;55.802;37.404;2023-02-01T05:26:45;30.27;;;9.85;;
24619;SDS011;12763;55.802;37.404;2023-02-01T05:29:14;30.55;;;11.45;;
24619;SDS011;12763;55.802;37.404;2023-02-01T05:31:40;31.38;;;10.15;;
24619;SDS011;12763;55.802;37.404;2023-02-01T05:34:06;32.65;;;11.40;;
24619;SDS011;12763;55.802;37.404;2023-02-01T05:36:33;23.77;;;10.52;;
24619;SDS011;12763;55.802;37.404;2023-02-01T05:38:59;23.92;;;10.68;;
24619;SDS011;12763;55.802;37.404;2023-02-01T05:41:27;26.08;;;11.00;;
24619;SDS011;12763;55.802;37.404;2023-02-01T05:43:56;28.42;;;10.70;;
24619;SDS011;12763;55.802;37.404;2023-02-01T05:46:22;30.27;;;10.10;;
24619;SDS011;12763;55.802;37.404;2023-02-01T05:48:48;34.13;;;12.35;;
24619;SDS011;12763;55.802;37.404;2023-02-01T05:51:14;28.92;;;11.40;;
24619;SDS011;12763;55.802;37.404;2023-02-01T05:53:39;28.00;;;11.27;;
24619;SDS011;12763;55.802;37.404;2023-02-01T05:56:06;35.55;;;12.65;;
24619;SDS011;12763;55.802;37.404;2023-02-01T05:58:32;31.67;;;12.15;;
24619;SDS011;12763;55.802;37.404;2023-02-01T06:01:01;32.55;;;12.18;;
24619;SDS011;12763;55.802;37.404;2023-02-01T06:03:27;31.92;;;13.43;;
24619;SDS011;12763;55.802;37.404;2023-02-01T06:06:01;33.17;;;12.95;;
24619;SDS011;12763;55.802;37.404;2023-02-01T06:08:27;32.17;;;12.70;;
24619;SDS011;12763;55.802;37.404;2023-02-01T06:10:57;40.25;;;14.30;;
24619;SDS011;12763;55.802;37.404;2023-02-01T06:13:24;31.00;;;12.18;;
24619;SDS011;12763;55.802;37.404;2023-02-01T06:15:49;40.65;;;14.10;;
24619;SDS011;12763;55.802;37.404;2023-02-01T06:18:15;40.85;;;14.02;;
24619;SDS011;12763;55.802;37.404;2023-02-01T06:20:41;39.40;;;13.90;;
24619;SDS011;12763;55.802;37.404;2023-02-01T06:23:07;36.40;;;13.45;;
24619;SDS011;12763;55.802;37.404;2023-02-01T06:25:32;32.67;;;12.40;;
24619;SDS011;12763;55.802;37.404;2023-02-01T06:28:01;35.63;;;12.50;;
24619;SDS011;12763;55.802;37.404;2023-02-01T06:30:28;33.60;;;11.13;;
24619;SDS011;12763;55.802;37.404;2023-02-01T06:32:55;35.72;;;12.48;;
24619;SDS011;12763;55.802;37.404;2023-02-01T06:35:21;39.05;;;13.05;;
24619;SDS011;12763;55.802;37.404;2023-02-01T06:37:46;32.65;;;12.13;;
24619;SDS011;12763;55.802;37.404;2023-02-01T06:40:12;35.47;;;12.70;;
24619;SDS011;12763;55.802;37.404;2023-02-01T06:42:38;33.03;;;13.13;;
24619;SDS011;12763;55.802;37.404;2023-02-01T06:45:04;30.17;;;11.65;;
24619;SDS011;12763;55.802;37.404;2023-02-01T06:47:31;36.63;;;13.43;;
24619;SDS011;12763;55.802;37.404;2023-02-01T06:49:57;38.17;;;12.80;;
24619;SDS011;12763;55.802;37.404;2023-02-01T06:52:23;34.63;;;12.43;;
24619;SDS011;12763;55.802;37.404;2023-02-01T06:54:48;31.83;;;12.05;;
24619;SDS011;12763;55.802;37.404;2023-02-01T06:57:14;31.63;;;11.55;;
24619;SDS011;12763;55.802;37.404;2023-02-01T06:59:40;36.20;;;12.43;;
24619;SDS011;12763;55.802;37.404;2023-02-01T07:02:09;29.92;;;10.70;;
24619;SDS011;12763;55.802;37.404;2023-02-01T07:04:36;33.08;;;12.02;;
24619;SDS011;12763;55.802;37.404;2023-02-01T07:07:02;35.13;;;12.68;;
24619;SDS011;12763;55.802;37.404;2023-02-01T07:09:27;37.08;;;11.63;;
24619;SDS011;12763;55.802;37.404;2023-02-01T07:11:53;40.40;;;13.82;;
24619;SDS011;12763;55.802;37.404;2023-02-01T07:14:19;32.47;;;12.40;;
24619;SDS011;12763;55.802;37.404;2023-02-01T07:16:44;28.73;;;12.18;;
24619;SDS011;12763;55.802;37.404;2023-02-01T07:19:10;36.13;;;13.10;;
24619;SDS011;12763;55.802;37.404;2023-02-01T07:21:36;35.03;;;12.02;;
24619;SDS011;12763;55.802;37.404;2023-02-01T07:24:02;38.25;;;12.35;;
24619;SDS011;12763;55.802;37.404;2023-02-01T07:26:28;33.58;;;13.60;;
24619;SDS011;12763;55.802;37.404;2023-02-01T07:28:53;33.33;;;11.80;;
24619;SDS011;12763;55.802;37.404;2023-02-01T07:31:19;40.55;;;14.25;;
24619;SDS011;12763;55.802;37.404;2023-02-01T07:33:49;31.58;;;11.15;;
24619;SDS011;12763;55.802;37.404;2023-02-01T07:36:18;31.73;;;11.95;;
24619;SDS011;12763;55.802;37.404;2023-02-01T07:38:44;37.50;;;11.68;;
24619;SDS011;12763;55.802;37.404;2023-02-01T07:41:12;34.47;;;11.73;;
24619;SDS011;12763;55.802;37.404;2023-02-01T07:43:40;30.98;;;11.05;;
24619;SDS011;12763;55.802;37.404;2023-02-01T07:46:07;36.83;;;11.55;;
24619;SDS011;12763;55.802;37.404;2023-02-01T07:48:33;33.40;;;12.02;;
24619;SDS011;12763;55.802;37.404;2023-02-01T07:51:00;33.92;;;11.10;;
24619;SDS011;12763;55.802;37.404;2023-02-01T07:53:28;34.80;;;12.70;;
24619;SDS011;12763;55.802;37.404;2023-02-01T07:55:57;33.45;;;10.48;;
24619;SDS011;12763;55.802;37.404;2023-02-01T07:58:23;28.50;;;11.70;;
24619;SDS011;12763;55.802;37.404;2023-02-01T08:00:49;34.70;;;11.23;;
24619;SDS011;12763;55.802;37.404;2023-02-01T08:03:33;29.42;;;12.23;;
24619;SDS011;12763;55.802;37.404;2023-02-01T08:05:59;29.90;;;10.88;;
24619;SDS011;12763;55.802;37.404;2023-02-01T08:08:25;29.58;;;11.15;;
24619;SDS011;12763;55.802;37.404;2023-02-01T08:10:51;36.10;;;11.35;;
24619;SDS011;12763;55.802;37.404;2023-02-01T08:13:17;28.23;;;11.15;;
24619;SDS011;12763;55.802;37.404;2023-02-01T08:15:42;32.90;;;10.52;;
24619;SDS011;12763;55.802;37.404;2023-02-01T08:18:08;21.70;;;9.60;;
24619;SDS011;12763;55.802;37.404;2023-02-01T08:20:35;24.95;;;9.30;;
24619;SDS011;12763;55.802;37.404;2023-02-01T08:23:01;30.30;;;10.45;;
24619;SDS011;12763;55.802;37.404;2023-02-01T08:25:27;27.67;;;11.05;;
24619;SDS011;12763;55.802;37.404;2023-02-01T08:27:56;35.97;;;11.35;;
24619;SDS011;12763;55.802;37.404;2023-02-01T08:30:22;27.30;;;10.70;;
24619;SDS011;12763;55.802;37.404;2023-02-01T08:32:48;34.35;;;12.63;;
24619;SDS011;12763;55.802;37.404;2023-02-01T08:35:14;28.27;;;12.00;;
24619;SDS011;12763;55.802;37.404;2023-02-01T08:37:40;32.95;;;11.82;;
24619;SDS011;12763;55.802;37.404;2023-02-01T08:40:06;29.40;;;10.75;;
24619;SDS011;12763;55.802;37.404;2023-02-01T08:42:32;32.80;;;12.80;;
24619;SDS011;12763;55.802;37.404;2023-02-01T08:45:23;33.63;;;11.48;;
24619;SDS011;12763;55.802;37.404;2023-02-01T08:47:51;35.75;;;12.60;;
24619;SDS011;12763;55.802;37.404;2023-02-01T08:50:18;25.80;;;10.15;;
24619;SDS011;12763;55.802;37.404;2023-02-01T08:52:45;33.30;;;11.60;;
24619;SDS011;12763;55.802;37.404;2023-02-01T08:55:11;40.70;;;13.45;;
24619;SDS011;12763;55.802;37.404;2023-02-01T08:57:47;36.33;;;11.27;;
24619;SDS011;12763;55.802;37.404;2023-02-01T09:00:14;37.08;;;12.48;;
24619;SDS011;12763;55.802;37.404;2023-02-01T09:02:42;34.00;;;12.55;;
24619;SDS011;12763;55.802;37.404;2023-02-01T09:05:11;30.95;;;12.38;;
24619;SDS011;12763;55.802;37.404;2023-02-01T09:07:37;35.42;;;12.85;;
24619;SDS011;12763;55.802;37.404;2023-02-01T09:10:03;37.83;;;12.25;;
24619;SDS011;12763;55.802;37.404;2023-02-01T09:12:30;38.72;;;14.20;;
24619;SDS011;12763;55.802;37.404;2023-02-01T09:14:59;26.10;;;10.43;;
24619;SDS011;12763;55.802;37.404;2023-02-01T09:17:26;34.53;;;13.60;;
24619;SDS011;12763;55.802;37.404;2023-02-01T09:19:52;31.45;;;11.98;;
24619;SDS011;12763;55.802;37.404;2023-02-01T09:22:18;39.65;;;12.45;;
24619;SDS011;12763;55.802;37.404;2023-02-01T09:24:44;31.05;;;11.68;;
24619;SDS011;12763;55.802;37.404;2023-02-01T09:27:10;33.05;;;13.88;;
24619;SDS011;12763;55.802;37.404;2023-02-01T09:29:36;27.73;;;11.15;;
24619;SDS011;12763;55.802;37.404;2023-02-01T09:32:01;37.88;;;12.65;;
24619;SDS011;12763;55.802;37.404;2023-02-01T09:34:27;37.38;;;13.02;;
24619;SDS011;12763;55.802;37.404;2023-02-01T09:36:53;31.05;;;12.95;;
24619;SDS011;12763;55.802;37.404;2023-02-01T09:39:21;30.17;;;12.80;;
24619;SDS011;12763;55.802;37.404;2023-02-01T09:44:41;37.97;;;13.85;;
24619;SDS011;12763;55.802;37.404;2023-02-01T09:47:19;37.55;;;14.43;;
24619;SDS011;12763;55.802;37.404;2023-02-01T09:50:11;39.10;;;14.00;;
24619;SDS011;12763;55.802;37.404;2023-02-01T09:52:55;41.53;;;16.05;;
24619;SDS011;12763;55.802;37.404;2023-02-01T09:55:41;36.15;;;13.68;;
24619;SDS011;12763;55.802;37.404;2023-02-01T09:58:32;31.33;;;13.90;;
24619;SDS011;12763;55.802;37.404;2023-02-01T10:01:01;28.45;;;12.85;;
24619;SDS011;12763;55.802;37.404;2023-02-01T10:03:29;39.40;;;13.40;;
24619;SDS011;12763;55.802;37.404;2023-02-01T10:06:19;32.38;;;11.80;;
24619;SDS011;12763;55.802;37.404;2023-02-01T10:21:06;29.17;;;10.90;;
24619;SDS011;12763;55.802;37.404;2023-02-01T10:29:44;29.73;;;11.70;;
24619;SDS011;12763;55.802;37.404;2023-02-01T10:32:22;28.65;;;12.13;;
24619;SDS011;12763;55.802;37.404;2023-02-01T10:34:57;32.65;;;14.55;;
24619;SDS011;12763;55.802;37.404;2023-02-01T10:37:32;31.95;;;12.23;;
24619;SDS011;12763;55.802;37.404;2023-02-01T10:40:00;33.80;;;13.73;;
24619;SDS011;12763;55.802;37.404;2023-02-01T10:42:38;34.97;;;12.52;;
24619;SDS011;12763;55.802;37.404;2023-02-01T10:45:05;30.88;;;11.70;;
24619;SDS011;12763;55.802;37.404;2023-02-01T10:47:32;24.30;;;9.88;;
24619;SDS011;12763;55.802;37.404;2023-02-01T10:52:51;26.65;;;10.57;;
24619;SDS011;12763;55.802;37.404;2023-02-01T10:57:56;31.25;;;11.35;;
24619;SDS011;12763;55.802;37.404;2023-02-01T11:00:24;32.42;;;11.57;;
24619;SDS011;12763;55.802;37.404;2023-02-01T11:02:50;36.55;;;12.25;;
24619;SDS011;12763;55.802;37.404;2023-02-01T11:05:16;29.00;;;12.85;;
24619;SDS011;12763;55.802;37.404;2023-02-01T11:07:51;29.00;;;11.30;;
24619;SDS011;12763;55.802;37.404;2023-02-01T11:10:40;30.50;;;11.75;;
24619;SDS011;12763;55.802;37.404;2023-02-01T11:13:17;33.75;;;12.32;;
24619;SDS011;12763;55.802;37.404;2023-02-01T11:15:46;27.67;;;10.95;;
24619;SDS011;12763;55.802;37.404;2023-02-01T11:18:24;27.70;;;10.45;;
24619;SDS011;12763;55.802;37.404;2023-02-01T11:20:53;32.72;;;11.38;;
24619;SDS011;12763;55.802;37.404;2023-02-01T11:23:30;25.40;;;10.88;;
24619;SDS011;12763;55.802;37.404;2023-02-01T11:25:59;30.60;;;11.48;;
24619;SDS011;12763;55.802;37.404;2023-02-01T11:28:29;30.20;;;12.13;;
24619;SDS011;12763;55.802;37.404;2023-02-01T11:30:58;28.13;;;11.45;;
24619;SDS011;12763;55.802;37.404;2023-02-01T11:33:29;26.13;;;11.32;;
24619;SDS011;12763;55.802;37.404;2023-02-01T11:36:01;27.33;;;11.75;;
24619;SDS011;12763;55.802;37.404;2023-02-01T11:39:06;27.52;;;11.45;;
24619;SDS011;12763;55.802;37.404;2023-02-01T11:41:42;31.30;;;12.27;;
24619;SDS011;12763;55.802;37.404;2023-02-01T11:44:39;32.88;;;12.13;;
24619;SDS011;12763;55.802;37.404;2023-02-01T11:47:23;29.17;;;13.30;;
24619;SDS011;12763;55.802;37.404;2023-02-01T11:49:53;35.03;;;13.90;;
24619;SDS011;12763;55.802;37.404;2023-02-01T11:52:36;34.17;;;14.30;;
24619;SDS011;12763;55.802;37.404;2023-02-01T11:55:31;33.38;;;13.68;;
24619;SDS011;12763;55.802;37.404;2023-02-01T12:01:23;28.90;;;11.40;;
24619;SDS011;12763;55.802;37.404;2023-02-01T12:06:54;32.67;;;11.43;;
24619;SDS011;12763;55.802;37.404;2023-02-01T12:11:57;30.38;;;12.88;;
24619;SDS011;12763;55.802;37.404;2023-02-01T12:18:19;33.97;;;12.68;;
24619;SDS011;12763;55.802;37.404;2023-02-01T12:29:07;32.22;;;12.32;;
24619;SDS011;12763;55.802;37.404;2023-02-01T12:34:47;34.17;;;12.93;;
24619;SDS011;12763;55.802;37.404;2023-02-01T12:40:18;31.75;;;13.20;;
24619;SDS011;12763;55.802;37.404;2023-02-01T12:43:11;30.88;;;12.38;;
24619;SDS011;12763;55.802;37.404;2023-02-01T12:45:51;40.63;;;14.75;;
24619;SDS011;12763;55.802;37.404;2023-02-01T12:48:31;32.83;;;15.25;;
24619;SDS011;12763;55.802;37.404;2023-02-01T12:51:11;27.77;;;10.68;;
24619;SDS011;12763;55.802;37.404;2023-02-01T12:53:45;26.25;;;10.30;;
24619;SDS011;12763;55.802;37.404;2023-02-01T12:57:02;29.73;;;9.90;;
24619;SDS011;12763;55.802;37.404;2023-02-01T12:59:50;26.27;;;10.85;;
24619;SDS011;12763;55.802;37.404;2023-02-01T13:05:19;27.55;;;12.88;;
24619;SDS011;12763;55.802;37.404;2023-02-01T13:08:06;29.00;;;11.27;;
24619;SDS011;12763;55.802;37.404;2023-02-01T13:11:22;26.77;;;11.43;;
24619;SDS011;12763;55.802;37.404;2023-02-01T13:19:17;28.50;;;10.98;;
24619;SDS011;12763;55.802;37.404;2023-02-01T13:21:58;26.05;;;11.32;;
24619;SDS011;12763;55.802;37.404;2023-02-01T13:27:11;28.70;;;12.02;;
24619;SDS011;12763;55.802;37.404;2023-02-01T13:29:45;23.77;;;10.18;;
24619;SDS011;12763;55.802;37.404;2023-02-01T13:35:27;24.65;;;11.40;;
24619;SDS011;12763;55.802;37.404;2023-02-01T13:45:49;24.40;;;10.15;;
24619;SDS011;12763;55.802;37.404;2023-02-01T13:48:19;22.35;;;9.68;;
24619;SDS011;12763;55.802;37.404;2023-02-01T13:50:52;25.23;;;10.18;;
24619;SDS011;12763;55.802;37.404;2023-02-01T13:53:25;24.58;;;9.95;;
24619;SDS011;12763;55.802;37.404;2023-02-01T13:56:04;25.85;;;11.43;;
24619;SDS011;12763;55.802;37.404;2023-02-01T13:58:37;25.33;;;9.27;;
24619;SDS011;12763;55.802;37.404;2023-02-01T14:03:52;25.15;;;10.27;;
24619;SDS011;12763;55.802;37.404;2023-02-01T14:11:33;25.60;;;10.27;;
24619;SDS011;12763;55.802;37.404;2023-02-01T14:19:21;19.13;;;9.00;;
24619;SDS011;12763;55.802;37.404;2023-02-01T14:21:53;24.85;;;9.57;;
24619;SDS011;12763;55.802;37.404;2023-02-01T14:24:49;15.93;;;8.23;;
24619;SDS011;12763;55.802;37.404;2023-02-01T14:27:20;25.08;;;9.93;;
24619;SDS011;12763;55.802;37.404;2023-02-01T14:29:53;27.10;;;11.70;;
24619;SDS011;12763;55.802;37.404;2023-02-01T14:32:24;27.13;;;10.00;;
24619;SDS011;12763;55.802;37.404;2023-02-01T14:35:02;31.17;;;11.02;;
24619;SDS011;12763;55.802;37.404;2023-02-01T14:37:36;24.45;;;10.27;;
24619;SDS011;12763;55.802;37.404;2023-02-01T14:47:48;25.98;;;10.75;;
24619;SDS011;12763;55.802;37.404;2023-02-01T15:01:14;28.60;;;9.52;;
24619;SDS011;12763;55.802;37.404;2023-02-01T15:03:56;20.15;;;9.35;;
24619;SDS011;12763;55.802;37.404;2023-02-01T15:09:23;21.98;;;10.70;;
24619;SDS011;12763;55.802;37.404;2023-02-01T15:12:02;24.67;;;10.43;;
24619;SDS011;12763;55.802;37.404;2023-02-01T15:17:20;28.75;;;10.45;;
24619;SDS011;12763;55.802;37.404;2023-02-01T15:20:01;26.20;;;9.95;;
24619;SDS011;12763;55.802;37.404;2023-02-01T15:22:30;23.50;;;10.38;;
24619;SDS011;12763;55.802;37.404;2023-02-01T15:24:58;20.13;;;9.07;;
24619;SDS011;12763;55.802;37.404;2023-02-01T15:27:25;20.52;;;8.13;;
24619;SDS011;12763;55.802;37.404;2023-02-01T15:29:52;21.38;;;9.18;;
24619;SDS011;12763;55.802;37.404;2023-02-01T15:32:37;20.45;;;9.05;;
24619;SDS011;12763;55.802;37.404;2023-02-01T15:35:05;18.60;;;8.10;;
24619;SDS011;12763;55.802;37.404;2023-02-01T15:37:33;18.75;;;8.65;;
24619;SDS011;12763;55.802;37.404;2023-02-01T15:40:18;21.20;;;8.88;;
24619;SDS011;12763;55.802;37.404;2023-02-01T15:42:54;24.23;;;10.05;;
24619;SDS011;12763;55.802;37.404;2023-02-01T15:45:23;27.48;;;10.75;;
24619;SDS011;12763;55.802;37.404;2023-02-01T15:47:53;34.00;;;11.25;;
24619;SDS011;12763;55.802;37.404;2023-02-01T15:50:20;29.08;;;12.45;;
24619;SDS011;12763;55.802;37.404;2023-02-01T15:52:49;24.75;;;9.23;;
24619;SDS011;12763;55.802;37.404;2023-02-01T15:57:58;21.88;;;9.65;;
24619;SDS011;12763;55.802;37.404;2023-02-01T16:00:25;25.25;;;10.40;;
24619;SDS011;12763;55.802;37.404;2023-02-01T16:02:55;24.33;;;10.90;;
24619;SDS011;12763;55.802;37.404;2023-02-01T16:05:39;21.00;;;9.35;;
24619;SDS011;12763;55.802;37.404;2023-02-01T16:08:16;26.05;;;10.00;;
24619;SDS011;12763;55.802;37.404;2023-02-01T16:10:47;24.60;;;10.07;;
24619;SDS011;12763;55.802;37.404;2023-02-01T16:13:15;29.95;;;9.15;;
24619;SDS011;12763;55.802;37.404;2023-02-01T16:15:42;26.25;;;10.05;;
24619;SDS011;12763;55.802;37.404;2023-02-01T16:18:09;23.48;;;10.25;;
24619;SDS011;12763;55.802;37.404;2023-02-01T16:20:41;20.73;;;8.70;;
24619;SDS011;12763;55.802;37.404;2023-02-01T16:23:08;24.05;;;10.73;;
24619;SDS011;12763;55.802;37.404;2023-02-01T16:25:36;27.13;;;10.32;;
24619;SDS011;12763;55.802;37.404;2023-02-01T16:28:03;30.75;;;10.38;;
24619;SDS011;12763;55.802;37.404;2023-02-01T16:30:30;21.40;;;8.93;;
24619;SDS011;12763;55.802;37.404;2023-02-01T16:32:58;21.00;;;8.55;;
24619;SDS011;12763;55.802;37.404;2023-02-01T16:35:26;23.35;;;9.68;;
24619;SDS011;12763;55.802;37.404;2023-02-01T16:37:55;27.20;;;9.93;;
24619;SDS011;12763;55.802;37.404;2023-02-01T16:40:21;29.10;;;10.50;;
24619;SDS011;12763;55.802;37.404;2023-02-01T16:42:48;21.88;;;9.73;;
24619;SDS011;12763;55.802;37.404;2023-02-01T16:45:16;27.27;;;9.68;;
24619;SDS011;12763;55.802;37.404;2023-02-01T16:47:45;26.67;;;9.90;;
24619;SDS011;12763;55.802;37.404;2023-02-01T16:50:17;21.17;;;9.00;;
24619;SDS011;12763;55.802;37.404;2023-02-01T16:52:48;30.15;;;9.77;;
24619;SDS011;12763;55.802;37.404;2023-02-01T16:55:17;30.90;;;9.68;;
24619;SDS011;12763;55.802;37.404;2023-02-01T16:57:46;25.38;;;10.32;;
24619;SDS011;12763;55.802;37.404;2023-02-01T17:00:12;26.88;;;10.52;;
24619;SDS011;12763;55.802;37.404;2023-02-01T17:02:40;24.65;;;10.27;;
24619;SDS011;12763;55.802;37.404;2023-02-01T17:05:07;21.52;;;10.02;;
24619;SDS011;12763;55.802;37.404;2023-02-01T17:07:35;27.50;;;10.50;;